sensor_id;sensor_type;location;lat;lon;timestamp;P1;durP1;ratioP1;P2;durP2;ratioP2
36415;SDS011;22447;44.530;18.620;2023-09-07T00:01:30;21.02;;;14.38;;
36415;SDS011;22447;44.530;18.620;2023-09-07T00:03:56;19.25;;;13.95;;
36415;SDS011;22447;44.530;18.620;2023-09-07T00:06:22;18.13;;;13.77;;
36415;SDS011;22447;44.530;18.620;2023-09-07T00:08:48;18.40;;;13.27;;
36415;SDS011;22447;44.530;18.620;2023-09-07T00:11:14;20.17;;;13.15;;
36415;SDS011;22447;44.530;18.620;2023-09-07T00:13:40;19.90;;;13.77;;
36415;SDS011;22447;44.530;18.620;2023-09-07T00:16:06;18.67;;;13.43;;
36415;SDS011;22447;44.530;18.620;2023-09-07T00:18:33;16.65;;;13.07;;
36415;SDS011;22447;44.530;18.620;2023-09-07T00:20:59;18.55;;;13.82;;
36415;SDS011;22447;44.530;18.620;2023-09-07T00:23:26;21.00;;;13.52;;
36415;SDS011;22447;44.530;18.620;2023-09-07T00:25:52;16.92;;;12.73;;
36415;SDS011;22447;44.530;18.620;2023-09-07T00:28:18;22.40;;;13.25;;
36415;SDS011;22447;44.530;18.620;2023-09-07T00:30:44;18.85;;;13.00;;
36415;SDS011;22447;44.530;18.620;2023-09-07T00:33:10;18.80;;;12.55;;
36415;SDS011;22447;44.530;18.620;2023-09-07T00:35:36;20.90;;;13.93;;
36415;SDS011;22447;44.530;18.620;2023-09-07T00:38:02;18.58;;;14.70;;
36415;SDS011;22447;44.530;18.620;2023-09-07T00:40:28;18.52;;;13.60;;
36415;SDS011;22447;44.530;18.620;2023-09-07T00:42:55;19.75;;;13.18;;
36415;SDS011;22447;44.530;18.620;2023-09-07T00:45:21;21.20;;;12.85;;
36415;SDS011;22447;44.530;18.620;2023-09-07T00:47:47;17.83;;;12.10;;
36415;SDS011;22447;44.530;18.620;2023-09-07T00:50:14;20.02;;;13.10;;
36415;SDS011;22447;44.530;18.620;2023-09-07T00:52:42;21.30;;;13.07;;
36415;SDS011;22447;44.530;18.620;2023-09-07T00:55:09;19.83;;;12.55;;
36415;SDS011;22447;44.530;18.620;2023-09-07T00:57:36;18.23;;;13.32;;
36415;SDS011;22447;44.530;18.620;2023-09-07T01:00:05;15.05;;;12.32;;
36415;SDS011;22447;44.530;18.620;2023-09-07T01:02:33;19.10;;;13.43;;
36415;SDS011;22447;44.530;18.620;2023-09-07T01:04:59;20.10;;;12.90;;
36415;SDS011;22447;44.530;18.620;2023-09-07T01:07:35;19.15;;;13.27;;
36415;SDS011;22447;44.530;18.620;2023-09-07T01:10:05;18.52;;;12.07;;
36415;SDS011;22447;44.530;18.620;2023-09-07T01:12:33;16.83;;;12.55;;
36415;SDS011;22447;44.530;18.620;2023-09-07T01:14:59;15.77;;;11.93;;
36415;SDS011;22447;44.530;18.620;2023-09-07T01:17:26;19.60;;;11.75;;
36415;SDS011;22447;44.530;18.620;2023-09-07T01:19:53;16.80;;;11.98;;
36415;SDS011;22447;44.530;18.620;2023-09-07T01:22:22;20.00;;;12.70;;
36415;SDS011;22447;44.530;18.620;2023-09-07T01:24:49;16.25;;;12.35;;
36415;SDS011;22447;44.530;18.620;2023-09-07T01:27:17;19.48;;;12.63;;
36415;SDS011;22447;44.530;18.620;2023-09-07T01:29:44;19.05;;;12.52;;
36415;SDS011;22447;44.530;18.620;2023-09-07T01:32:10;20.70;;;12.35;;
36415;SDS011;22447;44.530;18.620;2023-09-07T01:34:36;19.17;;;12.30;;
36415;SDS011;22447;44.530;18.620;2023-09-07T01:37:02;17.92;;;11.68;;
36415;SDS011;22447;44.530;18.620;2023-09-07T01:39:28;20.05;;;11.77;;
36415;SDS011;22447;44.530;18.620;2023-09-07T01:41:54;14.90;;;11.45;;
36415;SDS011;22447;44.530;18.620;2023-09-07T01:44:20;16.98;;;12.05;;
36415;SDS011;22447;44.530;18.620;2023-09-07T01:46:45;12.88;;;11.13;;
36415;SDS011;22447;44.530;18.620;2023-09-07T01:49:11;15.95;;;12.00;;
36415;SDS011;22447;44.530;18.620;2023-09-07T01:51:37;16.38;;;11.32;;
36415;SDS011;22447;44.530;18.620;2023-09-07T01:54:03;19.20;;;12.27;;
36415;SDS011;22447;44.530;18.620;2023-09-07T01:56:30;24.75;;;11.65;;
36415;SDS011;22447;44.530;18.620;2023-09-07T01:58:56;18.38;;;11.68;;
36415;SDS011;22447;44.530;18.620;2023-09-07T02:03:49;17.40;;;12.60;;
36415;SDS011;22447;44.530;18.620;2023-09-07T02:06:15;16.67;;;12.95;;
36415;SDS011;22447;44.530;18.620;2023-09-07T02:08:41;17.52;;;12.13;;
36415;SDS011;22447;44.530;18.620;2023-09-07T02:11:07;14.23;;;11.85;;
36415;SDS011;22447;44.530;18.620;2023-09-07T02:13:33;14.68;;;12.27;;
36415;SDS011;22447;44.530;18.620;2023-09-07T02:16:03;16.25;;;12.05;;
36415;SDS011;22447;44.530;18.620;2023-09-07T02:18:32;16.17;;;11.88;;
36415;SDS011;22447;44.530;18.620;2023-09-07T02:21:02;17.27;;;11.75;;
36415;SDS011;22447;44.530;18.620;2023-09-07T02:23:29;16.83;;;11.68;;
36415;SDS011;22447;44.530;18.620;2023-09-07T02:25:58;21.67;;;12.57;;
36415;SDS011;22447;44.530;18.620;2023-09-07T02:28:25;16.58;;;12.25;;
36415;SDS011;22447;44.530;18.620;2023-09-07T02:30:51;18.38;;;12.88;;
36415;SDS011;22447;44.530;18.620;2023-09-07T02:33:17;15.10;;;11.63;;
36415;SDS011;22447;44.530;18.620;2023-09-07T02:35:44;19.90;;;11.38;;
36415;SDS011;22447;44.530;18.620;2023-09-07T02:38:10;18.30;;;12.68;;
36415;SDS011;22447;44.530;18.620;2023-09-07T02:40:42;17.70;;;11.90;;
36415;SDS011;22447;44.530;18.620;2023-09-07T02:43:09;16.02;;;12.00;;
36415;SDS011;22447;44.530;18.620;2023-09-07T02:45:36;17.50;;;10.82;;
36415;SDS011;22447;44.530;18.620;2023-09-07T02:48:03;16.08;;;11.15;;
36415;SDS011;22447;44.530;18.620;2023-09-07T02:50:31;20.52;;;12.90;;
36415;SDS011;22447;44.530;18.620;2023-09-07T02:52:59;17.95;;;12.60;;
36415;SDS011;22447;44.530;18.620;2023-09-07T02:55:27;20.63;;;13.60;;
36415;SDS011;22447;44.530;18.620;2023-09-07T02:57:54;19.33;;;13.50;;
36415;SDS011;22447;44.530;18.620;2023-09-07T03:00:22;16.77;;;12.13;;
36415;SDS011;22447;44.530;18.620;2023-09-07T03:02:48;16.52;;;11.45;;
36415;SDS011;22447;44.530;18.620;2023-09-07T03:05:15;18.00;;;11.68;;
36415;SDS011;22447;44.530;18.620;2023-09-07T03:07:44;16.23;;;12.05;;
36415;SDS011;22447;44.530;18.620;2023-09-07T03:10:11;16.75;;;11.88;;
36415;SDS011;22447;44.530;18.620;2023-09-07T03:12:39;18.02;;;12.43;;
36415;SDS011;22447;44.530;18.620;2023-09-07T03:15:05;17.23;;;12.75;;
36415;SDS011;22447;44.530;18.620;2023-09-07T03:17:33;18.45;;;13.88;;
36415;SDS011;22447;44.530;18.620;2023-09-07T03:20:00;19.73;;;13.52;;
36415;SDS011;22447;44.530;18.620;2023-09-07T03:24:56;21.63;;;14.02;;
36415;SDS011;22447;44.530;18.620;2023-09-07T03:27:23;19.02;;;12.98;;
36415;SDS011;22447;44.530;18.620;2023-09-07T03:29:49;16.27;;;10.85;;
36415;SDS011;22447;44.530;18.620;2023-09-07T03:32:18;21.13;;;13.20;;
36415;SDS011;22447;44.530;18.620;2023-09-07T03:34:44;16.08;;;12.88;;
36415;SDS011;22447;44.530;18.620;2023-09-07T03:37:10;17.23;;;12.63;;
36415;SDS011;22447;44.530;18.620;2023-09-07T03:39:37;17.83;;;12.85;;
36415;SDS011;22447;44.530;18.620;2023-09-07T03:42:03;20.05;;;12.77;;
36415;SDS011;22447;44.530;18.620;2023-09-07T03:44:30;21.27;;;12.98;;
36415;SDS011;22447;44.530;18.620;2023-09-07T03:46:55;14.82;;;12.45;;
36415;SDS011;22447;44.530;18.620;2023-09-07T03:49:21;19.58;;;13.50;;
36415;SDS011;22447;44.530;18.620;2023-09-07T03:51:47;16.65;;;12.10;;
36415;SDS011;22447;44.530;18.620;2023-09-07T03:54:13;16.75;;;12.30;;
36415;SDS011;22447;44.530;18.620;2023-09-07T03:56:39;17.42;;;12.45;;
36415;SDS011;22447;44.530;18.620;2023-09-07T03:59:07;23.42;;;13.63;;
36415;SDS011;22447;44.530;18.620;2023-09-07T04:01:34;29.13;;;14.18;;
36415;SDS011;22447;44.530;18.620;2023-09-07T04:04:00;20.70;;;11.63;;
36415;SDS011;22447;44.530;18.620;2023-09-07T04:06:25;24.33;;;13.15;;
36415;SDS011;22447;44.530;18.620;2023-09-07T04:08:51;23.30;;;11.85;;
36415;SDS011;22447;44.530;18.620;2023-09-07T04:11:17;20.52;;;11.32;;
36415;SDS011;22447;44.530;18.620;2023-09-07T04:13:43;17.17;;;11.73;;
36415;SDS011;22447;44.530;18.620;2023-09-07T04:16:09;16.13;;;10.98;;
36415;SDS011;22447;44.530;18.620;2023-09-07T04:18:35;19.15;;;11.52;;
36415;SDS011;22447;44.530;18.620;2023-09-07T04:21:05;14.88;;;11.73;;
36415;SDS011;22447;44.530;18.620;2023-09-07T04:23:32;22.25;;;12.43;;
36415;SDS011;22447;44.530;18.620;2023-09-07T04:26:04;17.67;;;11.85;;
36415;SDS011;22447;44.530;18.620;2023-09-07T04:28:34;18.17;;;10.88;;
36415;SDS011;22447;44.530;18.620;2023-09-07T04:31:00;16.02;;;11.25;;
36415;SDS011;22447;44.530;18.620;2023-09-07T04:33:29;21.02;;;11.65;;
36415;SDS011;22447;44.530;18.620;2023-09-07T04:35:56;20.08;;;12.60;;
36415;SDS011;22447;44.530;18.620;2023-09-07T04:38:22;21.80;;;12.82;;
36415;SDS011;22447;44.530;18.620;2023-09-07T04:40:48;20.77;;;12.93;;
36415;SDS011;22447;44.530;18.620;2023-09-07T04:43:14;20.65;;;12.30;;
36415;SDS011;22447;44.530;18.620;2023-09-07T04:45:46;18.58;;;11.50;;
36415;SDS011;22447;44.530;18.620;2023-09-07T04:48:12;19.90;;;12.50;;
36415;SDS011;22447;44.530;18.620;2023-09-07T04:50:38;18.38;;;11.77;;
36415;SDS011;22447;44.530;18.620;2023-09-07T04:53:04;16.58;;;12.07;;
36415;SDS011;22447;44.530;18.620;2023-09-07T04:55:30;17.65;;;11.57;;
36415;SDS011;22447;44.530;18.620;2023-09-07T04:57:56;21.60;;;12.45;;
36415;SDS011;22447;44.530;18.620;2023-09-07T05:00:22;27.67;;;13.38;;
36415;SDS011;22447;44.530;18.620;2023-09-07T05:02:48;21.15;;;13.13;;
36415;SDS011;22447;44.530;18.620;2023-09-07T05:05:14;24.42;;;12.73;;
36415;SDS011;22447;44.530;18.620;2023-09-07T05:07:40;19.70;;;13.15;;
36415;SDS011;22447;44.530;18.620;2023-09-07T05:10:08;24.55;;;14.45;;
36415;SDS011;22447;44.530;18.620;2023-09-07T05:12:37;19.20;;;12.07;;
36415;SDS011;22447;44.530;18.620;2023-09-07T05:15:04;20.17;;;12.43;;
36415;SDS011;22447;44.530;18.620;2023-09-07T05:17:32;21.38;;;12.38;;
36415;SDS011;22447;44.530;18.620;2023-09-07T05:19:59;27.95;;;14.70;;
36415;SDS011;22447;44.530;18.620;2023-09-07T05:22:24;24.70;;;15.25;;
36415;SDS011;22447;44.530;18.620;2023-09-07T05:24:52;26.05;;;15.80;;
36415;SDS011;22447;44.530;18.620;2023-09-07T05:27:18;34.10;;;12.00;;
36415;SDS011;22447;44.530;18.620;2023-09-07T05:29:44;23.52;;;12.50;;
36415;SDS011;22447;44.530;18.620;2023-09-07T05:32:10;27.90;;;14.43;;
36415;SDS011;22447;44.530;18.620;2023-09-07T05:34:36;23.20;;;13.02;;
36415;SDS011;22447;44.530;18.620;2023-09-07T05:37:02;30.80;;;13.23;;
36415;SDS011;22447;44.530;18.620;2023-09-07T05:39:28;23.33;;;13.65;;
36415;SDS011;22447;44.530;18.620;2023-09-07T05:41:53;25.23;;;13.10;;
36415;SDS011;22447;44.530;18.620;2023-09-07T05:44:19;28.70;;;13.90;;
36415;SDS011;22447;44.530;18.620;2023-09-07T05:46:45;22.38;;;14.27;;
36415;SDS011;22447;44.530;18.620;2023-09-07T05:49:13;22.35;;;14.20;;
36415;SDS011;22447;44.530;18.620;2023-09-07T05:51:39;21.63;;;13.23;;
36415;SDS011;22447;44.530;18.620;2023-09-07T05:54:05;23.05;;;14.45;;
36415;SDS011;22447;44.530;18.620;2023-09-07T05:56:31;24.52;;;14.18;;
36415;SDS011;22447;44.530;18.620;2023-09-07T05:58:58;26.63;;;12.95;;
36415;SDS011;22447;44.530;18.620;2023-09-07T06:01:24;22.88;;;13.52;;
36415;SDS011;22447;44.530;18.620;2023-09-07T06:03:50;25.90;;;12.88;;
36415;SDS011;22447;44.530;18.620;2023-09-07T06:06:17;24.00;;;14.13;;
36415;SDS011;22447;44.530;18.620;2023-09-07T06:08:42;25.92;;;14.45;;
36415;SDS011;22447;44.530;18.620;2023-09-07T06:11:08;21.77;;;14.55;;
36415;SDS011;22447;44.530;18.620;2023-09-07T06:13:35;24.38;;;15.07;;
36415;SDS011;22447;44.530;18.620;2023-09-07T06:16:01;21.98;;;14.88;;
36415;SDS011;22447;44.530;18.620;2023-09-07T06:18:27;23.73;;;14.73;;
36415;SDS011;22447;44.530;18.620;2023-09-07T06:20:53;26.15;;;13.75;;
36415;SDS011;22447;44.530;18.620;2023-09-07T06:23:19;22.52;;;14.48;;
36415;SDS011;22447;44.530;18.620;2023-09-07T06:25:45;25.02;;;13.52;;
36415;SDS011;22447;44.530;18.620;2023-09-07T06:28:11;32.65;;;14.05;;
36415;SDS011;22447;44.530;18.620;2023-09-07T06:30:41;24.52;;;12.27;;
36415;SDS011;22447;44.530;18.620;2023-09-07T06:33:07;20.88;;;12.48;;
36415;SDS011;22447;44.530;18.620;2023-09-07T06:35:33;33.10;;;14.25;;
36415;SDS011;22447;44.530;18.620;2023-09-07T06:37:59;28.30;;;12.70;;
36415;SDS011;22447;44.530;18.620;2023-09-07T06:40:25;34.80;;;13.13;;
36415;SDS011;22447;44.530;18.620;2023-09-07T06:42:54;34.28;;;12.52;;
36415;SDS011;22447;44.530;18.620;2023-09-07T06:45:23;28.55;;;12.35;;
36415;SDS011;22447;44.530;18.620;2023-09-07T06:47:52;25.95;;;11.98;;
36415;SDS011;22447;44.530;18.620;2023-09-07T06:50:22;27.25;;;12.93;;
36415;SDS011;22447;44.530;18.620;2023-09-07T06:52:48;31.55;;;12.80;;
36415;SDS011;22447;44.530;18.620;2023-09-07T06:55:14;30.48;;;12.93;;
36415;SDS011;22447;44.530;18.620;2023-09-07T06:57:40;27.63;;;13.05;;
36415;SDS011;22447;44.530;18.620;2023-09-07T07:00:06;28.63;;;13.07;;
36415;SDS011;22447;44.530;18.620;2023-09-07T07:02:34;28.90;;;13.73;;
36415;SDS011;22447;44.530;18.620;2023-09-07T07:05:00;31.45;;;14.68;;
36415;SDS011;22447;44.530;18.620;2023-09-07T07:07:28;39.60;;;16.63;;
36415;SDS011;22447;44.530;18.620;2023-09-07T07:09:55;32.92;;;16.30;;
36415;SDS011;22447;44.530;18.620;2023-09-07T07:12:21;35.60;;;17.85;;
36415;SDS011;22447;44.530;18.620;2023-09-07T07:14:47;29.27;;;15.98;;
36415;SDS011;22447;44.530;18.620;2023-09-07T07:17:13;32.90;;;16.52;;
36415;SDS011;22447;44.530;18.620;2023-09-07T07:19:39;32.15;;;15.65;;
36415;SDS011;22447;44.530;18.620;2023-09-07T07:22:06;26.02;;;14.05;;
36415;SDS011;22447;44.530;18.620;2023-09-07T07:24:33;22.95;;;12.57;;
36415;SDS011;22447;44.530;18.620;2023-09-07T07:26:59;22.60;;;12.10;;
36415;SDS011;22447;44.530;18.620;2023-09-07T07:29:28;19.23;;;11.65;;
36415;SDS011;22447;44.530;18.620;2023-09-07T07:31:55;23.13;;;11.95;;
36415;SDS011;22447;44.530;18.620;2023-09-07T07:34:21;23.23;;;12.35;;
36415;SDS011;22447;44.530;18.620;2023-09-07T07:36:47;24.25;;;12.60;;
36415;SDS011;22447;44.530;18.620;2023-09-07T07:39:14;27.15;;;12.80;;
36415;SDS011;22447;44.530;18.620;2023-09-07T07:41:41;31.63;;;13.65;;
36415;SDS011;22447;44.530;18.620;2023-09-07T07:44:07;29.70;;;15.02;;
36415;SDS011;22447;44.530;18.620;2023-09-07T07:46:34;28.80;;;13.05;;
36415;SDS011;22447;44.530;18.620;2023-09-07T07:49:00;30.98;;;19.27;;
36415;SDS011;22447;44.530;18.620;2023-09-07T07:51:27;24.15;;;14.90;;
36415;SDS011;22447;44.530;18.620;2023-09-07T07:53:54;33.85;;;15.55;;
36415;SDS011;22447;44.530;18.620;2023-09-07T07:56:24;32.10;;;15.47;;
36415;SDS011;22447;44.530;18.620;2023-09-07T07:58:53;24.65;;;14.88;;
36415;SDS011;22447;44.530;18.620;2023-09-07T08:01:19;23.02;;;13.00;;
36415;SDS011;22447;44.530;18.620;2023-09-07T08:03:50;28.42;;;13.00;;
36415;SDS011;22447;44.530;18.620;2023-09-07T08:06:17;31.35;;;14.70;;
36415;SDS011;22447;44.530;18.620;2023-09-07T08:08:45;28.98;;;13.52;;
36415;SDS011;22447;44.530;18.620;2023-09-07T08:11:11;23.42;;;12.60;;
36415;SDS011;22447;44.530;18.620;2023-09-07T08:13:38;27.63;;;12.15;;
36415;SDS011;22447;44.530;18.620;2023-09-07T08:16:05;29.20;;;12.52;;
36415;SDS011;22447;44.530;18.620;2023-09-07T08:18:34;23.88;;;11.63;;
36415;SDS011;22447;44.530;18.620;2023-09-07T08:21:19;22.90;;;12.43;;
36415;SDS011;22447;44.530;18.620;2023-09-07T08:23:47;18.42;;;11.20;;
36415;SDS011;22447;44.530;18.620;2023-09-07T08:26:15;18.88;;;11.40;;
36415;SDS011;22447;44.530;18.620;2023-09-07T08:28:43;19.67;;;10.95;;
36415;SDS011;22447;44.530;18.620;2023-09-07T08:31:12;27.73;;;11.73;;
36415;SDS011;22447;44.530;18.620;2023-09-07T08:33:46;23.42;;;11.30;;
36415;SDS011;22447;44.530;18.620;2023-09-07T08:36:15;21.50;;;11.18;;
36415;SDS011;22447;44.530;18.620;2023-09-07T08:38:42;19.27;;;10.77;;
36415;SDS011;22447;44.530;18.620;2023-09-07T08:41:18;18.25;;;9.88;;
36415;SDS011;22447;44.530;18.620;2023-09-07T08:43:49;30.83;;;12.32;;
36415;SDS011;22447;44.530;18.620;2023-09-07T08:46:19;24.25;;;12.70;;
36415;SDS011;22447;44.530;18.620;2023-09-07T08:48:49;22.40;;;10.75;;
36415;SDS011;22447;44.530;18.620;2023-09-07T08:51:15;19.50;;;10.80;;
36415;SDS011;22447;44.530;18.620;2023-09-07T08:53:44;26.40;;;11.52;;
36415;SDS011;22447;44.530;18.620;2023-09-07T08:56:12;21.17;;;11.43;;
36415;SDS011;22447;44.530;18.620;2023-09-07T08:58:38;20.55;;;10.43;;
36415;SDS011;22447;44.530;18.620;2023-09-07T09:01:07;18.50;;;10.45;;
36415;SDS011;22447;44.530;18.620;2023-09-07T09:03:36;19.13;;;10.07;;
36415;SDS011;22447;44.530;18.620;2023-09-07T09:06:03;22.45;;;10.82;;
36415;SDS011;22447;44.530;18.620;2023-09-07T09:08:41;25.30;;;12.57;;
36415;SDS011;22447;44.530;18.620;2023-09-07T09:11:11;29.48;;;11.90;;
36415;SDS011;22447;44.530;18.620;2023-09-07T09:13:39;22.05;;;10.48;;
36415;SDS011;22447;44.530;18.620;2023-09-07T09:16:06;21.10;;;9.90;;
36415;SDS011;22447;44.530;18.620;2023-09-07T09:18:38;20.27;;;9.88;;
36415;SDS011;22447;44.530;18.620;2023-09-07T09:21:13;17.10;;;9.00;;
36415;SDS011;22447;44.530;18.620;2023-09-07T09:23:44;23.95;;;8.85;;
36415;SDS011;22447;44.530;18.620;2023-09-07T09:26:13;24.25;;;9.80;;
36415;SDS011;22447;44.530;18.620;2023-09-07T09:28:42;25.37;;;10.07;;
36415;SDS011;22447;44.530;18.620;2023-09-07T09:31:12;28.85;;;12.25;;
36415;SDS011;22447;44.530;18.620;2023-09-07T09:33:42;19.33;;;9.48;;
36415;SDS011;22447;44.530;18.620;2023-09-07T09:36:12;19.73;;;8.80;;
36415;SDS011;22447;44.530;18.620;2023-09-07T09:38:39;15.70;;;8.88;;
36415;SDS011;22447;44.530;18.620;2023-09-07T09:41:05;20.40;;;8.48;;
36415;SDS011;22447;44.530;18.620;2023-09-07T09:43:32;20.73;;;8.38;;
36415;SDS011;22447;44.530;18.620;2023-09-07T09:45:58;20.23;;;8.77;;
36415;SDS011;22447;44.530;18.620;2023-09-07T09:48:25;20.25;;;8.65;;
36415;SDS011;22447;44.530;18.620;2023-09-07T09:50:53;15.10;;;8.15;;
36415;SDS011;22447;44.530;18.620;2023-09-07T09:53:19;19.00;;;8.32;;
36415;SDS011;22447;44.530;18.620;2023-09-07T09:55:49;17.70;;;9.80;;
36415;SDS011;22447;44.530;18.620;2023-09-07T09:58:18;15.35;;;8.32;;
36415;SDS011;22447;44.530;18.620;2023-09-07T10:00:44;18.95;;;7.60;;
36415;SDS011;22447;44.530;18.620;2023-09-07T10:05:49;13.32;;;6.93;;
36415;SDS011;22447;44.530;18.620;2023-09-07T10:08:16;13.13;;;7.45;;
36415;SDS011;22447;44.530;18.620;2023-09-07T10:10:45;38.03;;;9.18;;
36415;SDS011;22447;44.530;18.620;2023-09-07T10:13:15;13.30;;;8.95;;
36415;SDS011;22447;44.530;18.620;2023-09-07T10:16:04;15.88;;;8.15;;
36415;SDS011;22447;44.530;18.620;2023-09-07T10:18:34;21.83;;;7.93;;
36415;SDS011;22447;44.530;18.620;2023-09-07T10:21:01;16.88;;;8.20;;
36415;SDS011;22447;44.530;18.620;2023-09-07T10:23:38;17.92;;;8.27;;
36415;SDS011;22447;44.530;18.620;2023-09-07T10:26:11;15.75;;;7.97;;
36415;SDS011;22447;44.530;18.620;2023-09-07T10:28:39;17.45;;;8.43;;
36415;SDS011;22447;44.530;18.620;2023-09-07T10:31:06;12.15;;;4.70;;
36415;SDS011;22447;44.530;18.620;2023-09-07T10:33:42;7.57;;;3.83;;
36415;SDS011;22447;44.530;18.620;2023-09-07T10:36:08;8.60;;;3.95;;
36415;SDS011;22447;44.530;18.620;2023-09-07T10:38:53;6.45;;;3.58;;
36415;SDS011;22447;44.530;18.620;2023-09-07T10:41:21;6.28;;;3.75;;
36415;SDS011;22447;44.530;18.620;2023-09-07T10:46:18;10.75;;;5.88;;
36415;SDS011;22447;44.530;18.620;2023-09-07T10:48:45;7.93;;;3.67;;
36415;SDS011;22447;44.530;18.620;2023-09-07T10:51:20;21.45;;;9.05;;
36415;SDS011;22447;44.530;18.620;2023-09-07T10:53:46;8.50;;;4.85;;
36415;SDS011;22447;44.530;18.620;2023-09-07T10:56:13;14.10;;;5.72;;
36415;SDS011;22447;44.530;18.620;2023-09-07T10:58:39;15.20;;;4.43;;
36415;SDS011;22447;44.530;18.620;2023-09-07T11:01:09;11.60;;;3.97;;
36415;SDS011;22447;44.530;18.620;2023-09-07T11:03:36;9.20;;;3.75;;
36415;SDS011;22447;44.530;18.620;2023-09-07T11:06:10;6.75;;;3.75;;
36415;SDS011;22447;44.530;18.620;2023-09-07T11:08:36;13.57;;;4.10;;
36415;SDS011;22447;44.530;18.620;2023-09-07T11:13:34;9.35;;;3.90;;
36415;SDS011;22447;44.530;18.620;2023-09-07T11:16:01;7.40;;;3.47;;
36415;SDS011;22447;44.530;18.620;2023-09-07T11:18:27;8.73;;;4.80;;
36415;SDS011;22447;44.530;18.620;2023-09-07T11:20:53;7.30;;;3.60;;
36415;SDS011;22447;44.530;18.620;2023-09-07T11:23:21;18.67;;;4.35;;
36415;SDS011;22447;44.530;18.620;2023-09-07T11:25:50;12.00;;;4.10;;
36415;SDS011;22447;44.530;18.620;2023-09-07T11:28:17;12.65;;;4.25;;
36415;SDS011;22447;44.530;18.620;2023-09-07T11:30:49;7.22;;;5.15;;
36415;SDS011;22447;44.530;18.620;2023-09-07T11:33:16;8.88;;;3.97;;
36415;SDS011;22447;44.530;18.620;2023-09-07T11:35:42;11.13;;;4.85;;
36415;SDS011;22447;44.530;18.620;2023-09-07T11:38:12;6.70;;;3.55;;
36415;SDS011;22447;44.530;18.620;2023-09-07T11:40:43;9.52;;;4.20;;
36415;SDS011;22447;44.530;18.620;2023-09-07T11:43:10;15.82;;;3.75;;
36415;SDS011;22447;44.530;18.620;2023-09-07T11:45:41;8.60;;;4.30;;
36415;SDS011;22447;44.530;18.620;2023-09-07T11:48:08;9.50;;;4.28;;
36415;SDS011;22447;44.530;18.620;2023-09-07T11:50:34;12.98;;;5.00;;
36415;SDS011;22447;44.530;18.620;2023-09-07T11:53:01;7.70;;;4.60;;
36415;SDS011;22447;44.530;18.620;2023-09-07T11:55:28;8.48;;;4.28;;
36415;SDS011;22447;44.530;18.620;2023-09-07T11:57:54;8.57;;;4.28;;
36415;SDS011;22447;44.530;18.620;2023-09-07T12:00:20;13.00;;;4.38;;
36415;SDS011;22447;44.530;18.620;2023-09-07T12:02:47;18.08;;;5.50;;
36415;SDS011;22447;44.530;18.620;2023-09-07T12:05:13;10.80;;;4.70;;
36415;SDS011;22447;44.530;18.620;2023-09-07T12:07:41;10.70;;;4.93;;
36415;SDS011;22447;44.530;18.620;2023-09-07T12:10:10;9.70;;;4.57;;
36415;SDS011;22447;44.530;18.620;2023-09-07T12:12:40;11.65;;;4.40;;
36415;SDS011;22447;44.530;18.620;2023-09-07T12:15:06;15.40;;;5.32;;
36415;SDS011;22447;44.530;18.620;2023-09-07T12:17:33;10.65;;;5.22;;
36415;SDS011;22447;44.530;18.620;2023-09-07T12:20:00;12.60;;;4.65;;
36415;SDS011;22447;44.530;18.620;2023-09-07T12:22:26;11.05;;;4.82;;
36415;SDS011;22447;44.530;18.620;2023-09-07T12:24:52;10.77;;;4.68;;
36415;SDS011;22447;44.530;18.620;2023-09-07T12:27:18;9.50;;;4.53;;
36415;SDS011;22447;44.530;18.620;2023-09-07T12:29:44;18.55;;;5.40;;
36415;SDS011;22447;44.530;18.620;2023-09-07T12:32:10;10.25;;;4.68;;
36415;SDS011;22447;44.530;18.620;2023-09-07T12:34:36;13.55;;;4.55;;
36415;SDS011;22447;44.530;18.620;2023-09-07T12:37:04;9.50;;;4.25;;
36415;SDS011;22447;44.530;18.620;2023-09-07T12:39:33;5.97;;;3.95;;
36415;SDS011;22447;44.530;18.620;2023-09-07T12:41:59;9.80;;;4.05;;
36415;SDS011;22447;44.530;18.620;2023-09-07T12:44:25;9.43;;;4.30;;
36415;SDS011;22447;44.530;18.620;2023-09-07T12:46:51;12.40;;;5.53;;
36415;SDS011;22447;44.530;18.620;2023-09-07T12:49:17;12.77;;;4.82;;
36415;SDS011;22447;44.530;18.620;2023-09-07T12:51:43;15.90;;;6.20;;
36415;SDS011;22447;44.530;18.620;2023-09-07T12:54:10;9.07;;;4.38;;
36415;SDS011;22447;44.530;18.620;2023-09-07T12:56:36;5.72;;;3.70;;
36415;SDS011;22447;44.530;18.620;2023-09-07T12:59:02;13.73;;;4.80;;
36415;SDS011;22447;44.530;18.620;2023-09-07T13:01:28;11.23;;;4.25;;
36415;SDS011;22447;44.530;18.620;2023-09-07T13:03:56;14.25;;;4.82;;
36415;SDS011;22447;44.530;18.620;2023-09-07T13:06:22;11.80;;;3.83;;
36415;SDS011;22447;44.530;18.620;2023-09-07T13:08:48;16.30;;;4.35;;
36415;SDS011;22447;44.530;18.620;2023-09-07T13:11:16;25.40;;;5.18;;
36415;SDS011;22447;44.530;18.620;2023-09-07T13:13:43;7.30;;;3.95;;
36415;SDS011;22447;44.530;18.620;2023-09-07T13:16:09;6.07;;;3.78;;
36415;SDS011;22447;44.530;18.620;2023-09-07T13:18:36;10.77;;;4.32;;
36415;SDS011;22447;44.530;18.620;2023-09-07T13:21:03;15.10;;;4.35;;
36415;SDS011;22447;44.530;18.620;2023-09-07T13:23:29;14.77;;;4.20;;
36415;SDS011;22447;44.530;18.620;2023-09-07T13:25:56;12.20;;;4.53;;
36415;SDS011;22447;44.530;18.620;2023-09-07T13:28:23;18.90;;;5.28;;
36415;SDS011;22447;44.530;18.620;2023-09-07T13:30:52;11.25;;;4.95;;
36415;SDS011;22447;44.530;18.620;2023-09-07T13:33:18;9.95;;;4.53;;
36415;SDS011;22447;44.530;18.620;2023-09-07T13:35:44;10.48;;;4.63;;
36415;SDS011;22447;44.530;18.620;2023-09-07T13:38:10;7.43;;;4.20;;
36415;SDS011;22447;44.530;18.620;2023-09-07T13:40:36;9.27;;;4.20;;
36415;SDS011;22447;44.530;18.620;2023-09-07T13:43:02;10.75;;;4.65;;
36415;SDS011;22447;44.530;18.620;2023-09-07T13:45:28;6.70;;;4.28;;
36415;SDS011;22447;44.530;18.620;2023-09-07T13:47:55;9.35;;;4.68;;
36415;SDS011;22447;44.530;18.620;2023-09-07T13:50:21;7.50;;;3.80;;
36415;SDS011;22447;44.530;18.620;2023-09-07T13:52:47;8.80;;;4.65;;
36415;SDS011;22447;44.530;18.620;2023-09-07T13:55:14;13.60;;;5.38;;
36415;SDS011;22447;44.530;18.620;2023-09-07T13:57:40;7.35;;;3.75;;
36415;SDS011;22447;44.530;18.620;2023-09-07T14:00:06;7.88;;;4.28;;
36415;SDS011;22447;44.530;18.620;2023-09-07T14:02:32;13.40;;;6.55;;
36415;SDS011;22447;44.530;18.620;2023-09-07T14:04:58;8.75;;;4.63;;
36415;SDS011;22447;44.530;18.620;2023-09-07T14:07:24;18.02;;;5.57;;
36415;SDS011;22447;44.530;18.620;2023-09-07T14:09:56;9.73;;;5.07;;
36415;SDS011;22447;44.530;18.620;2023-09-07T14:12:22;7.88;;;4.55;;
36415;SDS011;22447;44.530;18.620;2023-09-07T14:14:48;7.88;;;4.55;;
36415;SDS011;22447;44.530;18.620;2023-09-07T14:17:15;9.27;;;4.72;;
36415;SDS011;22447;44.530;18.620;2023-09-07T14:19:41;12.68;;;4.85;;
36415;SDS011;22447;44.530;18.620;2023-09-07T14:22:07;9.60;;;4.47;;
36415;SDS011;22447;44.530;18.620;2023-09-07T14:24:33;9.65;;;4.88;;
36415;SDS011;22447;44.530;18.620;2023-09-07T14:26:59;10.50;;;4.18;;
36415;SDS011;22447;44.530;18.620;2023-09-07T14:29:25;8.07;;;4.53;;